Time;durP1;ratioP1;P1;durP2;ratioP2;P2;SDS_P1;SDS_P2;PMS_P1;PMS_P2;Temp;Humidity;BMP_temperature;BMP_pressure;BME280_temperature;BME280_humidity;BME280_pressure;Samples;Min_cycle;Max_cycle;Signal;HPM_P1;HPM_P2
2022/08/20 00:01:24;;;;;;;26.38;20.13;;;;;;;;;;5069652;28;20031;-65
2022/08/20 00:03:50;;;;;;;26.08;20.25;;;;;;;;;;5072810;28;20047;-65
2022/08/20 00:06:18;;;;;;;25.33;20.23;;;;;;;;;;5073569;28;20104;-63
2022/08/20 00:08:45;;;;;;;26.90;21.40;;;;;;;;;;5056845;28;20648;-64
2022/08/20 00:11:11;;;;;;;26.63;20.63;;;;;;;;;;5057195;28;20032;-64
2022/08/20 00:13:46;;;;;;;26.88;21.17;;;;;;;;;;5074954;28;20052;-64
2022/08/20 00:16:13;;;;;;;25.55;21.30;;;;;;;;;;5075179;28;20094;-63
2022/08/20 00:18:40;;;;;;;24.63;19.45;;;;;;;;;;5074291;28;20025;-64
2022/08/20 00:21:07;;;;;;;27.33;21.58;;;;;;;;;;5074787;28;20021;-64
2022/08/20 00:23:36;;;;;;;27.07;20.70;;;;;;;;;;5074936;28;20099;-62
2022/08/20 00:26:02;;;;;;;27.23;21.75;;;;;;;;;;5056983;28;20265;-63
2022/08/20 00:28:28;;;;;;;27.25;20.98;;;;;;;;;;5074283;28;20492;-65
2022/08/20 00:30:54;;;;;;;31.60;21.15;;;;;;;;;;5074963;28;20473;-64
2022/08/20 00:33:21;;;;;;;28.77;22.75;;;;;;;;;;5056630;28;20024;-65
2022/08/20 00:35:48;;;;;;;28.25;22.20;;;;;;;;;;5074752;28;20116;-64
2022/08/20 00:38:15;;;;;;;35.75;26.00;;;;;;;;;;5056108;28;20031;-64
2022/08/20 00:40:52;;;;;;;56.95;51.63;;;;;;;;;;5074847;28;20019;-65
2022/08/20 00:43:27;;;;;;;65.63;60.17;;;;;;;;;;5075094;28;20043;-65
2022/08/20 00:45:56;;;;;;;70.10;64.25;;;;;;;;;;5075258;28;20016;-65
2022/08/20 00:48:27;;;;;;;73.93;67.45;;;;;;;;;;5074339;28;20103;-63
2022/08/20 00:50:56;;;;;;;78.95;71.88;;;;;;;;;;5074771;28;20031;-65
2022/08/20 00:53:23;;;;;;;78.55;71.93;;;;;;;;;;5074442;28;20503;-65
2022/08/20 00:55:49;;;;;;;73.22;67.13;;;;;;;;;;5074607;28;20449;-65
2022/08/20 00:58:15;;;;;;;70.60;64.97;;;;;;;;;;5055819;28;20115;-65
2022/08/20 01:00:46;;;;;;;68.78;63.38;;;;;;;;;;5074312;28;20495;-66
2022/08/20 01:03:14;;;;;;;67.63;62.33;;;;;;;;;;5056404;28;20029;-64
2022/08/20 01:05:43;;;;;;;70.00;64.28;;;;;;;;;;5074657;28;20028;-65
2022/08/20 01:08:09;;;;;;;68.10;62.25;;;;;;;;;;5055829;28;20070;-65
2022/08/20 01:10:36;;;;;;;71.40;65.55;;;;;;;;;;5074511;28;20453;-65
2022/08/20 01:13:08;;;;;;;71.07;65.55;;;;;;;;;;5074209;28;20032;-65
2022/08/20 01:15:36;;;;;;;68.00;62.45;;;;;;;;;;5073323;28;20033;-64
2022/08/20 01:18:02;;;;;;;66.80;61.95;;;;;;;;;;5073301;28;20025;-64
2022/08/20 01:20:37;;;;;;;67.68;62.60;;;;;;;;;;5073933;28;20025;-65
2022/08/20 01:23:25;;;;;;;66.68;61.67;;;;;;;;;;5055963;28;20052;-66
2022/08/20 01:25:52;;;;;;;65.13;60.25;;;;;;;;;;5073702;28;20016;-65
2022/08/20 01:28:20;;;;;;;65.15;60.25;;;;;;;;;;5073208;28;20047;-64
2022/08/20 01:30:46;;;;;;;63.40;58.28;;;;;;;;;;5074006;28;20497;-64
2022/08/20 01:33:12;;;;;;;64.38;59.38;;;;;;;;;;5056530;28;20025;-65
2022/08/20 01:35:39;;;;;;;62.33;57.55;;;;;;;;;;5074156;28;20033;-65
2022/08/20 01:38:06;;;;;;;61.30;56.70;;;;;;;;;;5073475;28;20028;-64
2022/08/20 01:40:47;;;;;;;60.97;56.47;;;;;;;;;;5056216;28;20025;-64
2022/08/20 01:43:13;;;;;;;61.40;56.67;;;;;;;;;;5072020;28;20021;-64
2022/08/20 01:45:39;;;;;;;60.38;55.95;;;;;;;;;;5073699;28;20048;-64
2022/08/20 01:48:06;;;;;;;61.85;57.20;;;;;;;;;;5073104;28;20032;-64
2022/08/20 01:50:34;;;;;;;59.00;54.60;;;;;;;;;;5073653;28;20024;-65
2022/08/20 01:53:08;;;;;;;59.85;55.13;;;;;;;;;;5072957;28;20051;-64
2022/08/20 01:55:34;;;;;;;59.58;54.97;;;;;;;;;;5073212;28;20020;-61
2022/08/20 01:58:01;;;;;;;59.60;54.85;;;;;;;;;;5072391;28;20028;-64
2022/08/20 02:00:27;;;;;;;60.35;55.65;;;;;;;;;;5073054;28;20111;-63
2022/08/20 02:02:53;;;;;;;60.08;55.10;;;;;;;;;;5054994;28;20025;-63
2022/08/20 02:05:19;;;;;;;61.85;56.78;;;;;;;;;;5072837;28;20035;-64
2022/08/20 02:07:45;;;;;;;62.50;57.30;;;;;;;;;;5072364;28;20024;-64
2022/08/20 02:10:12;;;;;;;61.78;56.95;;;;;;;;;;5072737;28;20036;-64
2022/08/20 02:12:38;;;;;;;60.55;55.25;;;;;;;;;;5073063;28;20024;-63
2022/08/20 02:15:07;;;;;;;59.47;54.40;;;;;;;;;;5072824;28;20016;-64
2022/08/20 02:17:33;;;;;;;62.63;57.30;;;;;;;;;;5072285;28;20495;-64
2022/08/20 02:20:08;;;;;;;62.20;57.00;;;;;;;;;;5072865;28;20032;-65
2022/08/20 02:23:03;;;;;;;61.85;56.58;;;;;;;;;;5072877;28;20503;-64
2022/08/20 02:25:31;;;;;;;59.95;54.78;;;;;;;;;;5051518;28;20374;-64
2022/08/20 02:27:59;;;;;;;59.65;54.67;;;;;;;;;;5071799;28;20028;-65
2022/08/20 02:30:28;;;;;;;61.45;56.28;;;;;;;;;;5072610;28;20031;-64
2022/08/20 02:32:54;;;;;;;62.92;57.58;;;;;;;;;;5072526;28;20103;-63
2022/08/20 02:35:20;;;;;;;63.13;57.85;;;;;;;;;;5072553;28;20055;-64
2022/08/20 02:37:46;;;;;;;64.78;59.33;;;;;;;;;;5053797;28;20021;-64
2022/08/20 02:40:15;;;;;;;64.25;58.70;;;;;;;;;;5072544;28;20074;-63
2022/08/20 02:42:41;;;;;;;67.82;62.00;;;;;;;;;;5072130;28;20017;-64
2022/08/20 02:45:07;;;;;;;68.20;62.67;;;;;;;;;;5072213;28;20115;-64
2022/08/20 02:47:33;;;;;;;66.15;60.80;;;;;;;;;;5071844;28;20048;-65
2022/08/20 02:49:59;;;;;;;64.40;59.10;;;;;;;;;;5072289;28;20476;-60
2022/08/20 02:52:25;;;;;;;66.05;60.65;;;;;;;;;;5072329;28;20025;-65
2022/08/20 02:54:51;;;;;;;66.22;60.70;;;;;;;;;;5071774;28;20032;-64
2022/08/20 02:57:19;;;;;;;63.13;57.90;;;;;;;;;;5071349;28;20460;-63
2022/08/20 02:59:46;;;;;;;63.08;58.08;;;;;;;;;;5072157;28;20139;-65
2022/08/20 03:02:12;;;;;;;64.63;59.42;;;;;;;;;;5054161;28;20074;-65
2022/08/20 03:04:38;;;;;;;62.65;57.60;;;;;;;;;;5054139;28;20066;-65
2022/08/20 03:07:05;;;;;;;61.45;56.55;;;;;;;;;;5071994;28;20487;-65
2022/08/20 03:09:31;;;;;;;66.53;61.40;;;;;;;;;;5053336;28;20508;-64
2022/08/20 03:11:58;;;;;;;64.82;59.78;;;;;;;;;;5071970;28;20025;-65
2022/08/20 03:14:24;;;;;;;62.65;57.67;;;;;;;;;;5053738;28;20485;-64
2022/08/20 03:16:50;;;;;;;62.60;57.47;;;;;;;;;;5071725;28;20024;-64
2022/08/20 03:19:16;;;;;;;62.15;57.00;;;;;;;;;;5071151;28;20441;-64
2022/08/20 03:21:42;;;;;;;59.92;55.03;;;;;;;;;;5053926;28;20442;-63
2022/08/20 03:24:08;;;;;;;60.47;55.35;;;;;;;;;;5071670;28;20103;-64
2022/08/20 03:26:34;;;;;;;61.45;56.45;;;;;;;;;;5053837;28;20083;-65
2022/08/20 03:29:00;;;;;;;59.17;54.30;;;;;;;;;;5052852;28;20408;-64
2022/08/20 03:31:26;;;;;;;59.40;54.42;;;;;;;;;;5071739;28;20538;-64
2022/08/20 03:33:52;;;;;;;58.67;53.78;;;;;;;;;;5053583;28;20029;-65
2022/08/20 03:36:19;;;;;;;56.67;51.97;;;;;;;;;;5071596;28;20112;-64
2022/08/20 03:38:45;;;;;;;58.65;53.92;;;;;;;;;;5070414;28;20055;-64
2022/08/20 03:41:11;;;;;;;57.92;53.17;;;;;;;;;;5053851;28;20457;-64
2022/08/20 03:43:37;;;;;;;59.33;54.42;;;;;;;;;;5071627;28;20108;-63
2022/08/20 03:46:04;;;;;;;58.83;54.17;;;;;;;;;;5071768;28;20017;-64
2022/08/20 03:48:30;;;;;;;59.47;54.65;;;;;;;;;;5070843;28;20606;-63
2022/08/20 03:50:59;;;;;;;58.53;53.83;;;;;;;;;;5071634;28;20424;-64
2022/08/20 03:53:28;;;;;;;57.00;52.30;;;;;;;;;;5071129;28;20025;-64
2022/08/20 03:55:54;;;;;;;59.38;54.33;;;;;;;;;;5071632;28;20012;-65
2022/08/20 03:58:21;;;;;;;58.63;53.83;;;;;;;;;;5070731;28;20484;-64
2022/08/20 04:00:48;;;;;;;58.50;53.72;;;;;;;;;;5071497;28;20028;-63
2022/08/20 04:03:14;;;;;;;58.22;53.33;;;;;;;;;;5071504;28;20082;-63
2022/08/20 04:05:41;;;;;;;57.30;52.60;;;;;;;;;;5071511;28;20029;-65
2022/08/20 04:08:09;;;;;;;57.45;52.75;;;;;;;;;;5070655;28;20060;-63
2022/08/20 04:10:35;;;;;;;55.03;50.30;;;;;;;;;;5053391;28;20169;-63
2022/08/20 04:13:01;;;;;;;56.92;52.22;;;;;;;;;;5071465;28;20090;-65
2022/08/20 04:15:27;;;;;;;54.95;50.47;;;;;;;;;;5071059;28;20134;-63
2022/08/20 04:17:53;;;;;;;56.95;52.15;;;;;;;;;;5070509;28;20024;-63
2022/08/20 04:20:22;;;;;;;56.03;51.25;;;;;;;;;;5071388;28;20032;-63
2022/08/20 04:22:57;;;;;;;55.00;50.53;;;;;;;;;;5071080;28;20028;-62
2022/08/20 04:25:23;;;;;;;57.38;52.30;;;;;;;;;;5071375;28;20033;-63
2022/08/20 04:27:50;;;;;;;54.90;50.33;;;;;;;;;;5070322;28;20025;-63
2022/08/20 04:30:17;;;;;;;57.47;52.75;;;;;;;;;;5071163;28;20025;-65
2022/08/20 04:32:43;;;;;;;60.95;55.95;;;;;;;;;;5053340;28;20036;-64
2022/08/20 04:35:10;;;;;;;60.80;55.83;;;;;;;;;;5071063;28;20024;-63
2022/08/20 04:37:38;;;;;;;59.90;55.20;;;;;;;;;;5070270;28;20484;-63
2022/08/20 04:42:50;;;;;;;61.92;56.92;;;;;;;;;;5071048;28;20059;-61
2022/08/20 04:45:16;;;;;;;60.30;55.58;;;;;;;;;;5070999;28;20496;-64
2022/08/20 04:47:42;;;;;;;62.13;57.13;;;;;;;;;;5070333;28;20058;-63
2022/08/20 04:50:08;;;;;;;63.35;58.17;;;;;;;;;;5073402;28;20100;-63
2022/08/20 04:52:36;;;;;;;61.40;56.50;;;;;;;;;;5074539;28;20032;-63
2022/08/20 04:55:02;;;;;;;61.03;56.10;;;;;;;;;;5079520;28;20387;-63
2022/08/20 04:57:28;;;;;;;61.53;56.63;;;;;;;;;;5091699;28;20028;-63
2022/08/20 04:59:54;;;;;;;60.60;55.58;;;;;;;;;;5094368;28;20027;-62
2022/08/20 05:02:21;;;;;;;60.17;55.25;;;;;;;;;;5094518;28;20476;-63
2022/08/20 05:04:47;;;;;;;59.38;54.67;;;;;;;;;;5075093;28;20162;-64
2022/08/20 05:07:14;;;;;;;59.58;54.75;;;;;;;;;;5073527;28;20025;-62
2022/08/20 05:09:41;;;;;;;59.35;54.65;;;;;;;;;;5074036;28;20028;-63
2022/08/20 05:12:07;;;;;;;59.90;54.90;;;;;;;;;;5082968;28;20043;-63
2022/08/20 05:14:33;;;;;;;58.17;53.47;;;;;;;;;;5094069;28;20579;-63
2022/08/20 05:17:03;;;;;;;59.80;54.92;;;;;;;;;;5094021;28;20119;-63
2022/08/20 05:19:29;;;;;;;61.15;56.13;;;;;;;;;;5075281;28;20099;-63
2022/08/20 05:21:56;;;;;;;57.72;52.92;;;;;;;;;;5075915;28;20446;-63
2022/08/20 05:24:22;;;;;;;61.83;56.58;;;;;;;;;;5093888;28;20073;-63
2022/08/20 05:26:48;;;;;;;58.88;53.85;;;;;;;;;;5075984;28;20024;-63
2022/08/20 05:29:14;;;;;;;59.80;54.78;;;;;;;;;;5083841;28;20516;-63
2022/08/20 05:31:41;;;;;;;59.75;54.65;;;;;;;;;;5074008;28;20025;-63
2022/08/20 05:34:08;;;;;;;48.63;44.33;;;;;;;;;;5073561;28;20055;-63
2022/08/20 05:36:35;;;;;;;47.58;43.22;;;;;;;;;;5055806;28;20026;-63
2022/08/20 05:39:01;;;;;;;49.35;44.83;;;;;;;;;;5073236;28;20493;-63
2022/08/20 05:41:28;;;;;;;49.22;44.72;;;;;;;;;;5073527;28;20029;-63
2022/08/20 05:43:54;;;;;;;48.22;43.63;;;;;;;;;;5055568;28;20025;-63
2022/08/20 05:46:21;;;;;;;47.63;43.40;;;;;;;;;;5055431;28;20035;-63
2022/08/20 05:48:47;;;;;;;49.28;44.58;;;;;;;;;;5054500;28;20104;-63
2022/08/20 05:51:14;;;;;;;46.70;42.17;;;;;;;;;;5073186;28;20082;-63
2022/08/20 05:53:40;;;;;;;47.13;42.58;;;;;;;;;;5074364;28;20906;-61
2022/08/20 05:56:08;;;;;;;45.80;41.58;;;;;;;;;;5080960;28;20086;-64
2022/08/20 05:58:34;;;;;;;45.92;41.60;;;;;;;;;;5092613;28;20020;-64
2022/08/20 06:01:00;;;;;;;46.30;41.85;;;;;;;;;;5092773;28;20073;-60
2022/08/20 06:06:11;;;;;;;43.38;39.40;;;;;;;;;;5094768;28;20031;-65
2022/08/20 06:08:37;;;;;;;44.53;40.53;;;;;;;;;;5095065;28;20020;-64
2022/08/20 06:11:04;;;;;;;44.78;40.75;;;;;;;;;;5095537;28;20024;-63
2022/08/20 06:13:30;;;;;;;45.50;41.55;;;;;;;;;;5094421;28;20035;-63
2022/08/20 06:15:56;;;;;;;45.45;41.45;;;;;;;;;;5093975;28;20056;-64
2022/08/20 06:18:22;;;;;;;54.15;49.75;;;;;;;;;;5092693;28;20028;-63
2022/08/20 06:20:49;;;;;;;56.13;51.55;;;;;;;;;;5093135;28;20016;-65
2022/08/20 06:23:15;;;;;;;55.42;50.90;;;;;;;;;;5092922;28;20112;-64
2022/08/20 06:25:41;;;;;;;55.92;51.40;;;;;;;;;;5092911;28;20024;-64
2022/08/20 06:28:08;;;;;;;56.22;51.38;;;;;;;;;;5092661;28;20024;-64
2022/08/20 06:30:34;;;;;;;54.53;50.25;;;;;;;;;;5083037;28;20046;-64
2022/08/20 06:33:00;;;;;;;54.78;50.13;;;;;;;;;;5072481;28;20377;-63
2022/08/20 06:35:26;;;;;;;53.50;49.15;;;;;;;;;;5072307;28;20039;-63
2022/08/20 06:37:53;;;;;;;53.28;48.97;;;;;;;;;;5071544;28;20024;-61
2022/08/20 06:40:21;;;;;;;54.97;50.38;;;;;;;;;;5072400;28;20074;-64
2022/08/20 06:42:48;;;;;;;54.78;49.80;;;;;;;;;;5073508;28;20404;-63
2022/08/20 06:45:15;;;;;;;53.20;48.78;;;;;;;;;;5073237;28;20032;-63
2022/08/20 06:47:43;;;;;;;52.35;48.22;;;;;;;;;;5053718;28;20085;-62
2022/08/20 06:50:12;;;;;;;51.90;47.40;;;;;;;;;;5054548;28;20426;-63
2022/08/20 06:52:38;;;;;;;52.67;48.17;;;;;;;;;;5072239;28;20373;-62
2022/08/20 06:55:04;;;;;;;50.25;46.15;;;;;;;;;;5071830;28;20028;-64
2022/08/20 06:57:30;;;;;;;52.95;48.60;;;;;;;;;;5082362;28;20028;-64
2022/08/20 06:59:57;;;;;;;51.63;47.42;;;;;;;;;;5092540;28;20081;-64
2022/08/20 07:02:23;;;;;;;51.28;47.05;;;;;;;;;;5092507;28;20020;-63
2022/08/20 07:04:49;;;;;;;47.28;43.35;;;;;;;;;;5092084;28;20077;-65
2022/08/20 07:07:19;;;;;;;49.22;45.08;;;;;;;;;;5091934;28;20446;-63
2022/08/20 07:09:45;;;;;;;49.75;45.47;;;;;;;;;;5092500;28;20051;-64
2022/08/20 07:12:12;;;;;;;47.28;43.30;;;;;;;;;;5091939;28;20583;-64
2022/08/20 07:14:38;;;;;;;45.25;41.65;;;;;;;;;;5092660;28;20061;-65
2022/08/20 07:17:04;;;;;;;42.92;39.33;;;;;;;;;;5092277;28;20062;-64
2022/08/20 07:19:30;;;;;;;41.83;38.22;;;;;;;;;;5091765;28;20081;-64
2022/08/20 07:21:56;;;;;;;31.15;28.15;;;;;;;;;;5092450;28;20020;-64
2022/08/20 07:24:22;;;;;;;29.58;26.60;;;;;;;;;;5092521;28;20027;-65
2022/08/20 07:26:50;;;;;;;27.65;24.38;;;;;;;;;;5092748;28;20031;-64
2022/08/20 07:29:16;;;;;;;27.63;23.73;;;;;;;;;;5092052;28;20020;-65
2022/08/20 07:34:27;;;;;;;25.92;22.73;;;;;;;;;;5092301;28;20168;-63
2022/08/20 07:36:53;;;;;;;24.52;21.27;;;;;;;;;;5073712;28;20152;-63
2022/08/20 07:39:20;;;;;;;28.23;23.13;;;;;;;;;;5091281;28;20024;-64
2022/08/20 07:42:01;;;;;;;24.08;20.48;;;;;;;;;;5091771;28;20024;-64
2022/08/20 07:44:27;;;;;;;24.25;21.00;;;;;;;;;;5072058;28;20073;-64
2022/08/20 07:46:53;;;;;;;25.35;20.95;;;;;;;;;;5091798;28;20031;-64
2022/08/20 07:49:19;;;;;;;24.33;21.25;;;;;;;;;;5090777;28;20047;-64
2022/08/20 07:51:45;;;;;;;24.98;21.13;;;;;;;;;;5091702;28;20020;-64
2022/08/20 07:54:11;;;;;;;24.42;20.77;;;;;;;;;;5091421;28;20070;-64
2022/08/20 07:56:37;;;;;;;22.92;19.23;;;;;;;;;;5091580;28;20452;-65
2022/08/20 07:59:05;;;;;;;25.15;19.95;;;;;;;;;;5090938;28;20059;-64
2022/08/20 08:01:31;;;;;;;24.67;19.75;;;;;;;;;;5091757;28;20107;-64
2022/08/20 08:03:58;;;;;;;22.70;20.30;;;;;;;;;;5091543;28;20031;-65
2022/08/20 08:06:26;;;;;;;23.45;19.73;;;;;;;;;;5091440;28;20028;-65
2022/08/20 08:08:52;;;;;;;24.58;18.60;;;;;;;;;;5091093;28;20395;-67
2022/08/20 08:11:18;;;;;;;22.77;19.10;;;;;;;;;;5073649;28;20122;-59
2022/08/20 08:13:46;;;;;;;22.95;19.95;;;;;;;;;;5091427;28;20024;-59
2022/08/20 08:16:12;;;;;;;25.48;20.27;;;;;;;;;;5091461;28;20048;-58
2022/08/20 08:18:44;;;;;;;23.35;19.30;;;;;;;;;;5090356;28;20028;-58
2022/08/20 08:21:13;;;;;;;22.25;19.33;;;;;;;;;;5091271;28;20074;-60
2022/08/20 08:23:43;;;;;;;25.02;19.35;;;;;;;;;;5092267;28;20047;-60
2022/08/20 08:26:13;;;;;;;19.60;17.20;;;;;;;;;;5094965;28;20024;-60
2022/08/20 08:28:40;;;;;;;22.77;17.73;;;;;;;;;;5094438;28;20050;-60
2022/08/20 08:31:06;;;;;;;20.65;17.70;;;;;;;;;;5094854;28;20093;-60
2022/08/20 08:33:32;;;;;;;22.15;18.58;;;;;;;;;;5094725;28;20043;-59
2022/08/20 08:35:58;;;;;;;24.15;17.55;;;;;;;;;;5095075;28;20497;-62
2022/08/20 08:38:25;;;;;;;21.73;18.60;;;;;;;;;;5094332;28;20055;-61
2022/08/20 08:40:53;;;;;;;24.10;17.25;;;;;;;;;;5094491;28;20479;-63
2022/08/20 08:43:21;;;;;;;22.33;17.60;;;;;;;;;;5094757;28;20028;-62
2022/08/20 08:45:50;;;;;;;19.87;17.10;;;;;;;;;;5094494;28;20097;-62
2022/08/20 08:48:19;;;;;;;19.13;16.73;;;;;;;;;;5093850;28;20028;-60
2022/08/20 08:50:46;;;;;;;23.23;16.95;;;;;;;;;;5076519;28;20107;-62
2022/08/20 08:53:18;;;;;;;20.88;16.45;;;;;;;;;;5094239;28;20407;-61
2022/08/20 08:55:45;;;;;;;18.17;15.15;;;;;;;;;;5094195;28;20069;-62
2022/08/20 08:58:11;;;;;;;20.80;16.35;;;;;;;;;;5093664;28;20024;-62
2022/08/20 09:00:37;;;;;;;18.95;15.38;;;;;;;;;;5094514;28;20028;-62
2022/08/20 09:03:06;;;;;;;17.73;14.95;;;;;;;;;;5094116;28;20103;-62
2022/08/20 09:05:36;;;;;;;21.65;16.17;;;;;;;;;;5094511;28;20051;-61
2022/08/20 09:08:03;;;;;;;20.42;15.13;;;;;;;;;;5093421;28;20039;-61
2022/08/20 09:10:29;;;;;;;17.77;14.35;;;;;;;;;;5094199;28;20476;-62
2022/08/20 09:12:55;;;;;;;18.52;15.25;;;;;;;;;;5094116;28;20047;-61
2022/08/20 09:15:21;;;;;;;19.50;14.70;;;;;;;;;;5094135;28;20067;-62
2022/08/20 09:17:47;;;;;;;20.65;16.05;;;;;;;;;;5093360;28;20058;-61
2022/08/20 09:20:13;;;;;;;19.95;15.70;;;;;;;;;;5075773;28;20066;-61
2022/08/20 09:22:40;;;;;;;20.08;15.30;;;;;;;;;;5085008;28;20031;-62
2022/08/20 09:25:07;;;;;;;21.27;16.20;;;;;;;;;;5073698;28;20029;-62
2022/08/20 09:27:33;;;;;;;18.27;14.48;;;;;;;;;;5073180;28;20029;-64
2022/08/20 09:29:59;;;;;;;18.15;14.57;;;;;;;;;;5073514;28;20025;-62
2022/08/20 09:32:25;;;;;;;19.00;14.23;;;;;;;;;;5073577;28;20082;-63
2022/08/20 09:34:55;;;;;;;17.88;14.02;;;;;;;;;;5072402;28;20487;-63
2022/08/20 09:37:23;;;;;;;18.50;13.60;;;;;;;;;;5072858;28;20020;-64
2022/08/20 09:39:49;;;;;;;18.50;13.55;;;;;;;;;;5056354;28;20067;-64
2022/08/20 09:42:15;;;;;;;17.60;14.48;;;;;;;;;;5055873;28;20027;-63
2022/08/20 09:44:42;;;;;;;19.35;15.02;;;;;;;;;;5073142;28;20040;-64
2022/08/20 09:47:08;;;;;;;18.80;15.23;;;;;;;;;;5055108;28;20074;-63
2022/08/20 09:49:36;;;;;;;18.60;14.57;;;;;;;;;;5072644;28;20032;-63
2022/08/20 09:52:03;;;;;;;18.17;14.57;;;;;;;;;;5073016;28;20028;-62
2022/08/20 09:54:30;;;;;;;19.52;15.05;;;;;;;;;;5072605;28;20458;-64
2022/08/20 09:57:06;;;;;;;17.70;14.63;;;;;;;;;;5079164;28;20035;-62
2022/08/20 09:59:34;;;;;;;18.67;14.00;;;;;;;;;;5092593;28;20028;-63
2022/08/20 10:02:00;;;;;;;17.98;13.35;;;;;;;;;;5093251;28;20024;-61
2022/08/20 10:04:26;;;;;;;20.30;12.90;;;;;;;;;;5093440;28;20325;-63
2022/08/20 10:06:52;;;;;;;17.83;13.27;;;;;;;;;;5093460;28;20016;-61
2022/08/20 10:09:18;;;;;;;17.85;12.88;;;;;;;;;;5092063;28;20424;-62
2022/08/20 10:11:44;;;;;;;16.67;12.40;;;;;;;;;;5093017;28;20044;-57
2022/08/20 10:14:10;;;;;;;22.02;13.65;;;;;;;;;;5092893;28;20051;-63
2022/08/20 10:16:36;;;;;;;19.80;13.20;;;;;;;;;;5092776;28;20487;-63
2022/08/20 10:19:02;;;;;;;18.02;12.32;;;;;;;;;;5091927;28;20469;-64
2022/08/20 10:21:29;;;;;;;17.65;13.15;;;;;;;;;;5092675;28;20118;-64
2022/08/20 10:23:55;;;;;;;16.98;12.60;;;;;;;;;;5092594;28;20024;-64
2022/08/20 10:26:21;;;;;;;18.27;12.60;;;;;;;;;;5092593;28;20337;-64
2022/08/20 10:28:48;;;;;;;17.05;12.85;;;;;;;;;;5091728;28;20141;-64
2022/08/20 10:31:14;;;;;;;17.02;12.75;;;;;;;;;;5092498;28;20052;-64
2022/08/20 10:33:40;;;;;;;18.02;12.80;;;;;;;;;;5092071;28;20099;-62
2022/08/20 10:36:08;;;;;;;17.13;13.18;;;;;;;;;;5092676;28;20034;-58
2022/08/20 10:38:34;;;;;;;17.35;13.23;;;;;;;;;;5073220;28;20055;-58
2022/08/20 10:41:00;;;;;;;19.17;13.50;;;;;;;;;;5092589;28;20399;-59
2022/08/20 10:43:27;;;;;;;17.08;13.65;;;;;;;;;;5092399;28;20514;-54
2022/08/20 10:45:53;;;;;;;19.10;13.48;;;;;;;;;;5092113;28;20032;-59
2022/08/20 10:48:19;;;;;;;17.98;12.95;;;;;;;;;;5073169;28;20028;-57
2022/08/20 10:50:45;;;;;;;18.17;13.18;;;;;;;;;;5091879;28;20028;-56
2022/08/20 10:53:11;;;;;;;17.33;13.02;;;;;;;;;;5073559;28;20050;-55
2022/08/20 10:55:38;;;;;;;18.15;14.00;;;;;;;;;;5091950;28;20016;-59
2022/08/20 10:58:06;;;;;;;17.75;13.68;;;;;;;;;;5091189;28;20092;-59
2022/08/20 11:00:32;;;;;;;18.83;14.57;;;;;;;;;;5091887;28;20114;-58
2022/08/20 11:02:58;;;;;;;19.30;13.20;;;;;;;;;;5092111;28;20020;-51
2022/08/20 11:05:25;;;;;;;16.45;13.02;;;;;;;;;;5091849;28;20028;-58
2022/08/20 11:07:51;;;;;;;18.45;13.45;;;;;;;;;;5090879;28;20024;-54
2022/08/20 11:10:17;;;;;;;16.88;13.63;;;;;;;;;;5091429;28;20120;-58
2022/08/20 11:12:43;;;;;;;17.83;13.35;;;;;;;;;;5084356;28;20035;-58
2022/08/20 11:15:09;;;;;;;18.98;13.52;;;;;;;;;;5080595;28;20025;-58
2022/08/20 11:17:39;;;;;;;19.80;13.73;;;;;;;;;;5079307;28;20044;-57
2022/08/20 11:20:06;;;;;;;18.17;13.18;;;;;;;;;;5080158;28;20392;-54
2022/08/20 11:22:32;;;;;;;18.80;13.35;;;;;;;;;;5091258;28;20051;-53
2022/08/20 11:24:58;;;;;;;18.50;13.50;;;;;;;;;;5091312;28;20023;-60
2022/08/20 11:27:26;;;;;;;16.60;12.88;;;;;;;;;;5090803;28;20119;-61
2022/08/20 11:29:52;;;;;;;17.00;13.77;;;;;;;;;;5091801;28;20020;-60
2022/08/20 11:32:18;;;;;;;17.13;12.98;;;;;;;;;;5073767;28;20063;-61
2022/08/20 11:34:44;;;;;;;16.88;13.20;;;;;;;;;;5091869;28;20050;-61
2022/08/20 11:37:11;;;;;;;17.65;12.57;;;;;;;;;;5091049;28;20020;-58
2022/08/20 11:39:37;;;;;;;18.33;13.30;;;;;;;;;;5092481;28;20020;-61
2022/08/20 11:42:03;;;;;;;19.80;13.60;;;;;;;;;;5091580;28;20023;-58
2022/08/20 11:44:29;;;;;;;18.83;12.68;;;;;;;;;;5089948;28;20466;-59
2022/08/20 11:46:58;;;;;;;17.77;12.77;;;;;;;;;;5091316;28;20028;-61
2022/08/20 11:49:24;;;;;;;17.67;12.75;;;;;;;;;;5091034;28;20032;-61
2022/08/20 11:51:50;;;;;;;17.65;12.90;;;;;;;;;;5073873;28;20118;-62
2022/08/20 11:54:17;;;;;;;18.30;13.32;;;;;;;;;;5103933;23;20190;-57
2022/08/20 11:56:43;;;;;;;19.40;13.10;;;;;;;;;;5086660;28;20477;-62
2022/08/20 11:59:09;;;;;;;18.58;13.00;;;;;;;;;;5072622;28;20031;-60
2022/08/20 12:01:34;;;;;;;18.25;13.02;;;;;;;;;;5075341;28;20021;-56
2022/08/20 12:04:01;;;;;;;17.88;13.27;;;;;;;;;;5070001;28;20032;-64
2022/08/20 12:06:27;;;;;;;18.63;13.57;;;;;;;;;;5055308;28;20397;-63
2022/08/20 12:08:53;;;;;;;17.60;13.52;;;;;;;;;;5053089;28;20024;-64
2022/08/20 12:11:19;;;;;;;18.83;13.43;;;;;;;;;;5055094;28;20029;-64
2022/08/20 12:13:45;;;;;;;20.85;13.73;;;;;;;;;;5054716;28;20071;-66
2022/08/20 12:16:11;;;;;;;18.50;13.80;;;;;;;;;;5055227;28;20025;-66
2022/08/20 12:18:37;;;;;;;19.20;13.35;;;;;;;;;;5054306;28;20064;-65
2022/08/20 12:21:03;;;;;;;21.73;13.68;;;;;;;;;;5054886;28;20025;-63
2022/08/20 12:23:29;;;;;;;18.38;13.38;;;;;;;;;;5054815;28;20081;-64
2022/08/20 12:25:55;;;;;;;19.98;14.40;;;;;;;;;;5055740;28;20024;-64
2022/08/20 12:28:21;;;;;;;18.88;13.43;;;;;;;;;;5054779;28;20037;-64
2022/08/20 12:30:47;;;;;;;20.83;13.55;;;;;;;;;;5054041;28;20032;-64
2022/08/20 12:33:13;;;;;;;19.15;13.68;;;;;;;;;;5055541;28;20068;-64
2022/08/20 12:35:40;;;;;;;18.40;12.75;;;;;;;;;;5054842;28;20031;-64
2022/08/20 12:38:06;;;;;;;23.42;12.65;;;;;;;;;;5054237;28;20025;-63
2022/08/20 12:40:33;;;;;;;17.77;12.70;;;;;;;;;;5055178;28;20500;-63
2022/08/20 12:42:59;;;;;;;17.60;12.60;;;;;;;;;;5054929;28;20025;-64
2022/08/20 12:45:25;;;;;;;17.60;13.13;;;;;;;;;;5052979;28;20020;-64
2022/08/20 12:47:51;;;;;;;18.20;13.40;;;;;;;;;;5054162;28;20077;-63
2022/08/20 12:50:19;;;;;;;17.52;13.60;;;;;;;;;;5054850;28;20029;-64
2022/08/20 12:52:47;;;;;;;17.42;13.70;;;;;;;;;;5055171;28;20393;-64
2022/08/20 12:55:14;;;;;;;18.43;13.10;;;;;;;;;;5054915;28;20512;-63
2022/08/20 12:57:42;;;;;;;19.13;13.50;;;;;;;;;;5054361;28;20025;-64
2022/08/20 13:00:09;;;;;;;17.63;12.93;;;;;;;;;;5053080;28;20035;-65
2022/08/20 13:02:36;;;;;;;20.35;13.93;;;;;;;;;;5054620;28;20025;-64
2022/08/20 13:05:02;;;;;;;17.63;13.23;;;;;;;;;;5054891;28;20032;-64
2022/08/20 13:07:28;;;;;;;17.63;13.52;;;;;;;;;;5053822;28;20287;-64
2022/08/20 13:09:54;;;;;;;19.25;13.35;;;;;;;;;;5053113;28;20422;-63
2022/08/20 13:12:20;;;;;;;17.92;13.50;;;;;;;;;;5054602;28;20036;-64
2022/08/20 13:14:46;;;;;;;18.60;13.38;;;;;;;;;;5053150;28;20453;-64
2022/08/20 13:17:16;;;;;;;21.83;14.07;;;;;;;;;;5053879;28;20049;-63
2022/08/20 13:19:43;;;;;;;19.00;13.70;;;;;;;;;;5054464;28;20029;-63
2022/08/20 13:22:09;;;;;;;19.77;13.57;;;;;;;;;;5053205;28;20048;-64
2022/08/20 13:24:36;;;;;;;17.52;13.60;;;;;;;;;;5053973;28;20031;-63
2022/08/20 13:27:07;;;;;;;16.80;13.13;;;;;;;;;;5054503;28;20020;-63
2022/08/20 13:29:33;;;;;;;18.08;13.32;;;;;;;;;;5054055;28;20052;-64
2022/08/20 13:31:59;;;;;;;19.13;13.27;;;;;;;;;;5053107;28;20025;-64
2022/08/20 13:34:25;;;;;;;18.98;13.73;;;;;;;;;;5052814;28;20627;-64
2022/08/20 13:36:51;;;;;;;19.75;13.27;;;;;;;;;;5054318;28;20075;-63
2022/08/20 13:39:17;;;;;;;19.80;13.07;;;;;;;;;;5053439;28;20021;-64
2022/08/20 13:41:44;;;;;;;17.13;13.18;;;;;;;;;;5054136;28;20028;-64
2022/08/20 13:44:10;;;;;;;17.73;13.55;;;;;;;;;;5052845;28;20104;-63
2022/08/20 13:46:36;;;;;;;19.20;13.68;;;;;;;;;;5053818;28;20036;-63
2022/08/20 13:49:02;;;;;;;18.92;13.30;;;;;;;;;;5052697;28;20025;-62
2022/08/20 13:51:28;;;;;;;18.77;13.77;;;;;;;;;;5053802;28;20060;-63
2022/08/20 13:53:54;;;;;;;19.17;13.52;;;;;;;;;;5053898;28;20382;-63
2022/08/20 13:56:20;;;;;;;18.58;13.40;;;;;;;;;;5053808;28;20017;-63
2022/08/20 13:58:46;;;;;;;22.02;13.90;;;;;;;;;;5052870;28;20032;-62
2022/08/20 14:01:12;;;;;;;19.88;13.25;;;;;;;;;;5053584;28;20211;-63
2022/08/20 14:03:38;;;;;;;18.33;13.88;;;;;;;;;;5053279;28;20025;-63
2022/08/20 14:06:04;;;;;;;19.80;13.80;;;;;;;;;;5053181;28;20037;-64
2022/08/20 14:08:30;;;;;;;20.00;13.50;;;;;;;;;;5051782;28;20389;-61
2022/08/20 14:10:57;;;;;;;19.77;13.50;;;;;;;;;;5052307;28;20086;-63
2022/08/20 14:13:24;;;;;;;17.73;13.60;;;;;;;;;;5052915;28;20021;-61
2022/08/20 14:15:50;;;;;;;18.58;13.48;;;;;;;;;;5052554;28;20021;-64
2022/08/20 14:18:16;;;;;;;20.27;13.55;;;;;;;;;;5052059;28;20370;-63
2022/08/20 14:20:42;;;;;;;20.15;13.35;;;;;;;;;;5052105;28;20108;-63
2022/08/20 14:23:09;;;;;;;18.33;13.02;;;;;;;;;;5052549;28;20083;-64